Time;durP1;ratioP1;P1;durP2;ratioP2;P2;SDS_P1;SDS_P2;PMS_P1;PMS_P2;Temp;Humidity;BMP_temperature;BMP_pressure;BME280_temperature;BME280_humidity;BME280_pressure;Samples;Min_cycle;Max_cycle;Signal;HPM_P1;HPM_P2
2022/06/18 00:00:25;;;;;;;;;;;;;;;18.78;45.30;97071.59;5095161;28;19952;-71
2022/06/18 00:02:52;;;;;;;;;;;;;;;18.76;45.59;97067.56;5095420;28;19959;-71
2022/06/18 00:05:19;;;;;;;;;;;;;;;18.72;46.17;97064.63;5083701;28;19970;-71
2022/06/18 00:07:52;;;;;;;;;;;;;;;18.69;46.48;97067.78;5094343;28;19959;-71
2022/06/18 00:10:21;;;;;;;;;;;;;;;18.64;46.84;97065.09;5094821;28;19957;-71
2022/06/18 00:15:33;;;;;;;;;;;;;;;18.53;46.98;97061.56;5095047;28;19971;-71
2022/06/18 00:17:59;;;;;;;;;;;;;;;18.50;46.71;97058.59;5094566;28;20004;-71
2022/06/18 00:20:27;;;;;;;;;;;;;;;18.44;47.82;97066.53;5079423;28;19954;-71
2022/06/18 00:22:54;;;;;;;;;;;;;;;18.41;47.49;97067.03;5093750;28;19949;-71
2022/06/18 00:25:26;;;;;;;;;;;;;;;18.35;47.61;97068.06;5093482;28;19994;-71
2022/06/18 00:27:52;;;;;;;;;;;;;;;18.31;47.88;97072.28;5094801;28;19957;-71
2022/06/18 00:30:19;;;;;;;;;;;;;;;18.28;48.09;97075.41;5094119;28;19956;-71
2022/06/18 00:32:46;;;;;;;;;;;;;;;18.23;47.77;97068.22;5093411;28;19961;-71
2022/06/18 00:35:12;;;;;;;;;;;;;;;18.20;48.47;97070.56;5094610;28;19963;-71
2022/06/18 00:37:39;;;;;;;;;;;;;;;18.14;48.11;97067.06;5094410;28;19956;-71
2022/06/18 00:40:11;;;;;;;;;;;;;;;18.09;48.60;97061.69;5079173;28;19966;-71
2022/06/18 00:42:38;;;;;;;;;;;;;;;18.06;48.53;97072.81;5093645;28;19952;-71
2022/06/18 00:45:04;;;;;;;;;;;;;;;18.02;48.84;97061.91;5092809;28;19967;-71
2022/06/18 00:47:30;;;;;;;;;;;;;;;17.99;49.10;97057.06;5094487;28;19955;-71
2022/06/18 00:50:14;;;;;;;;;;;;;;;17.95;49.50;97058.63;5094626;28;20312;-71
2022/06/18 00:52:43;;;;;;;;;;;;;;;17.93;49.67;97054.63;5094271;28;19969;-71
2022/06/18 00:55:09;;;;;;;;;;;;;;;17.87;49.65;97069.72;5093352;28;19956;-71
2022/06/18 00:57:40;;;;;;;;;;;;;;;17.83;50.32;97064.09;5094268;28;20325;-71
2022/06/18 01:00:09;;;;;;;;;;;;;;;17.80;49.99;97066.41;5093496;28;19949;-71
2022/06/18 01:02:38;;;;;;;;;;;;;;;17.77;50.33;97072.22;5093901;28;20326;-71
2022/06/18 01:05:14;;;;;;;;;;;;;;;17.73;50.36;97065.81;5093856;28;19975;-71
2022/06/18 01:07:40;;;;;;;;;;;;;;;17.70;50.98;97066.28;5094052;28;20425;-71
2022/06/18 01:10:41;;;;;;;;;;;;;;;17.65;50.80;97061.72;5093799;28;19971;-71
2022/06/18 01:13:08;;;;;;;;;;;;;;;17.62;50.50;97060.38;5094159;28;19956;-72
2022/06/18 01:15:34;;;;;;;;;;;;;;;17.60;50.87;97056.38;5093864;28;20406;-71
2022/06/18 01:18:01;;;;;;;;;;;;;;;17.58;50.62;97064.56;5093712;28;19956;-71
2022/06/18 01:20:27;;;;;;;;;;;;;;;17.56;51.59;97058.72;5093859;28;19957;-71
2022/06/18 01:22:55;;;;;;;;;;;;;;;17.53;51.11;97053.88;5093597;28;19962;-71
2022/06/18 01:25:22;;;;;;;;;;;;;;;17.49;51.47;97047.50;5093735;28;20331;-71
2022/06/18 01:27:48;;;;;;;;;;;;;;;17.47;51.55;97052.25;5093606;28;19955;-71
2022/06/18 01:30:16;;;;;;;;;;;;;;;17.43;52.03;97048.50;5093747;28;19973;-71
2022/06/18 01:32:43;;;;;;;;;;;;;;;17.40;51.85;97047.09;5093426;28;19953;-71
2022/06/18 01:35:10;;;;;;;;;;;;;;;17.38;52.03;97043.09;5093334;28;19956;-71
2022/06/18 01:37:36;;;;;;;;;;;;;;;17.34;51.99;97042.78;5093674;28;19951;-71
2022/06/18 01:40:03;;;;;;;;;;;;;;;17.34;52.04;97036.69;5093498;28;20022;-71
2022/06/18 01:42:32;;;;;;;;;;;;;;;17.29;52.29;97039.28;5093853;28;20325;-71
2022/06/18 01:45:06;;;;;;;;;;;;;;;17.25;52.24;97028.38;5097616;28;19973;-71
2022/06/18 01:47:37;;;;;;;;;;;;;;;17.24;52.57;97038.19;5097627;28;19956;-71
2022/06/18 01:50:12;;;;;;;;;;;;;;;17.23;53.03;97035.75;5097663;28;19948;-71
2022/06/18 01:52:44;;;;;;;;;;;;;;;17.18;52.77;97025.13;5097007;28;19953;-71
2022/06/18 01:55:19;;;;;;;;;;;;;;;17.15;53.49;97030.88;5098015;28;20422;-71
2022/06/18 01:57:48;;;;;;;;;;;;;;;17.10;53.83;97026.31;5097440;28;19957;-71
2022/06/18 02:00:16;;;;;;;;;;;;;;;17.06;53.93;97027.88;5097311;28;19965;-71
2022/06/18 02:02:43;;;;;;;;;;;;;;;17.04;54.26;97017.50;5097314;28;19960;-71
2022/06/18 02:05:09;;;;;;;;;;;;;;;17.02;53.30;97016.16;5096203;28;19971;-71
2022/06/18 02:07:35;;;;;;;;;;;;;;;17.00;53.51;97015.59;5097312;28;19961;-71
2022/06/18 02:10:03;;;;;;;;;;;;;;;16.99;53.33;97008.69;5097381;28;19959;-70
2022/06/18 02:12:33;;;;;;;;;;;;;;;16.98;53.57;97002.56;5097165;28;19954;-71
2022/06/18 02:15:02;;;;;;;;;;;;;;;16.97;53.96;97005.50;5097310;28;19989;-71
2022/06/18 02:17:29;;;;;;;;;;;;;;;16.95;54.34;97008.38;5097178;28;19965;-71
2022/06/18 02:19:58;;;;;;;;;;;;;;;16.94;54.50;97005.97;5097515;28;19958;-71
2022/06/18 02:22:29;;;;;;;;;;;;;;;16.92;54.91;97013.34;5097102;28;19953;-71
2022/06/18 02:24:55;;;;;;;;;;;;;;;16.88;55.27;97014.88;5097018;28;19969;-71
2022/06/18 02:27:22;;;;;;;;;;;;;;;16.83;54.98;97000.53;5096803;28;20436;-71
2022/06/18 02:29:47;;;;;;;;;;;;;;;16.81;54.97;97009.78;5096317;28;20393;-71
2022/06/18 02:32:18;;;;;;;;;;;;;;;16.79;54.90;97002.03;5097448;28;20049;-71
2022/06/18 02:34:44;;;;;;;;;;;;;;;16.77;55.00;97004.13;5096941;28;19963;-71
2022/06/18 02:37:15;;;;;;;;;;;;;;;16.74;55.31;97001.19;5095771;28;19961;-71
2022/06/18 02:39:51;;;;;;;;;;;;;;;16.71;55.16;96999.00;5096787;28;19962;-71
2022/06/18 02:42:19;;;;;;;;;;;;;;;16.69;54.50;96996.59;5096681;28;19962;-71
2022/06/18 02:44:46;;;;;;;;;;;;;;;16.67;55.18;96997.88;5096920;28;19978;-71
2022/06/18 02:47:13;;;;;;;;;;;;;;;16.63;54.90;96992.25;5096602;28;19954;-71
2022/06/18 02:49:44;;;;;;;;;;;;;;;16.63;54.94;96994.91;5096528;28;19962;-71
2022/06/18 02:52:10;;;;;;;;;;;;;;;16.60;54.78;96996.19;5096731;28;20290;-71
2022/06/18 02:54:36;;;;;;;;;;;;;;;16.59;54.64;96996.47;5094826;28;19952;-71
2022/06/18 02:57:05;;;;;;;;;;;;;;;16.59;54.90;96999.13;5096287;28;20004;-71
2022/06/18 02:59:31;;;;;;;;;;;;;;;16.57;54.48;97006.50;5096178;28;20416;-71
2022/06/18 03:01:56;;;;;;;;;;;;;;;16.58;54.54;97000.94;5096369;28;20044;-71
2022/06/18 03:04:22;;;;;;;;;;;;;;;16.57;55.18;96996.69;5096274;28;19968;-71
2022/06/18 03:06:48;;;;;;;;;;;;;;;16.57;55.04;96994.03;5096190;28;20040;-70
2022/06/18 03:09:14;;;;;;;;;;;;;;;16.55;55.09;96990.84;5096213;28;20045;-71
2022/06/18 03:14:24;;;;;;;;;;;;;;;16.51;55.90;96996.88;5095705;28;19981;-71
2022/06/18 03:16:50;;;;;;;;;;;;;;;16.46;55.60;96994.91;5096054;28;19964;-71
2022/06/18 03:19:36;;;;;;;;;;;;;;;16.42;55.68;96996.44;5095906;28;19957;-71
2022/06/18 03:22:09;;;;;;;;;;;;;;;16.38;56.31;96993.50;5096008;28;19979;-71
2022/06/18 03:24:38;;;;;;;;;;;;;;;16.37;56.09;96997.19;5079709;28;20462;-71
2022/06/18 03:27:04;;;;;;;;;;;;;;;16.34;56.38;96996.88;5095980;28;19962;-70
2022/06/18 03:29:40;;;;;;;;;;;;;;;16.30;56.54;96993.91;5077319;28;19951;-71
2022/06/18 03:32:06;;;;;;;;;;;;;;;16.28;56.65;96990.69;5095792;28;20335;-71
2022/06/18 03:34:32;;;;;;;;;;;;;;;16.26;56.72;96998.06;5095523;28;19966;-71
2022/06/18 03:36:58;;;;;;;;;;;;;;;16.24;56.41;96992.22;5095626;28;20027;-70
2022/06/18 03:39:25;;;;;;;;;;;;;;;16.23;56.72;96993.25;5095533;28;20362;-71
2022/06/18 03:41:50;;;;;;;;;;;;;;;16.23;56.89;96990.59;5093624;28;20301;-71
2022/06/18 03:44:17;;;;;;;;;;;;;;;16.23;57.11;96990.59;5095665;28;20013;-71
2022/06/18 03:46:43;;;;;;;;;;;;;;;16.23;57.47;96995.88;5095299;28;19998;-71
2022/06/18 03:49:16;;;;;;;;;;;;;;;16.23;57.47;96994.06;5095287;28;19958;-71
2022/06/18 03:51:42;;;;;;;;;;;;;;;16.25;57.17;96993.81;5095744;28;19952;-71
2022/06/18 03:54:08;;;;;;;;;;;;;;;16.30;57.33;96993.09;5095297;28;19952;-71
2022/06/18 03:56:34;;;;;;;;;;;;;;;16.33;57.31;96990.75;5095249;28;19997;-71
2022/06/18 03:59:00;;;;;;;;;;;;;;;16.38;57.12;96990.84;5095212;28;20402;-71
2022/06/18 04:01:31;;;;;;;;;;;;;;;16.43;57.42;96982.97;5094995;28;19957;-71
2022/06/18 04:03:56;;;;;;;;;;;;;;;16.49;57.45;96998.97;5095261;28;19968;-71
2022/06/18 04:06:23;;;;;;;;;;;;;;;16.52;57.22;96991.31;5094867;28;19974;-71
2022/06/18 04:08:50;;;;;;;;;;;;;;;16.58;57.13;96992.19;5095001;28;19956;-71
2022/06/18 04:11:16;;;;;;;;;;;;;;;16.61;57.87;96997.81;5094402;28;20321;-71
2022/06/18 04:13:43;;;;;;;;;;;;;;;16.66;58.34;97002.38;5094693;28;19985;-71
2022/06/18 04:16:10;;;;;;;;;;;;;;;16.70;58.44;96997.41;5095134;28;19970;-71
2022/06/18 04:18:36;;;;;;;;;;;;;;;16.75;58.33;96998.25;5094883;28;19964;-72
2022/06/18 04:21:02;;;;;;;;;;;;;;;16.77;58.06;96990.88;5095254;28;19968;-71
2022/06/18 04:23:29;;;;;;;;;;;;;;;16.82;57.90;96985.69;5094784;28;19954;-70
2022/06/18 04:25:55;;;;;;;;;;;;;;;16.90;58.46;96991.59;5094811;28;19968;-70
2022/06/18 04:28:21;;;;;;;;;;;;;;;16.95;58.08;96992.47;5094456;28;20406;-71
2022/06/18 04:30:47;;;;;;;;;;;;;;;16.99;58.17;97000.75;5094593;28;19965;-70
2022/06/18 04:33:13;;;;;;;;;;;;;;;17.06;57.52;96998.72;5094547;28;19950;-71
2022/06/18 04:35:40;;;;;;;;;;;;;;;17.12;57.99;97008.34;5094705;28;20346;-71
2022/06/18 04:38:06;;;;;;;;;;;;;;;17.19;57.39;96998.34;5094451;28;19953;-71
2022/06/18 04:40:33;;;;;;;;;;;;;;;17.27;57.03;96997.13;5094495;28;19959;-71
2022/06/18 04:43:06;;;;;;;;;;;;;;;17.35;57.74;96998.53;5094374;28;19959;-71
2022/06/18 04:45:32;;;;;;;;;;;;;;;17.41;56.87;96997.56;5094454;28;19978;-71
2022/06/18 04:47:58;;;;;;;;;;;;;;;17.50;56.59;96996.06;5094595;28;19960;-71
2022/06/18 04:50:29;;;;;;;;;;;;;;;17.59;56.25;96989.25;5093491;28;19984;-71
2022/06/18 04:52:55;;;;;;;;;;;;;;;17.68;55.61;96981.66;5094397;28;19946;-71
2022/06/18 04:55:21;;;;;;;;;;;;;;;17.78;54.82;96983.59;5094107;28;20520;-71
2022/06/18 04:57:47;;;;;;;;;;;;;;;17.90;54.38;96981.63;5078584;28;19946;-71
2022/06/18 05:00:14;;;;;;;;;;;;;;;18.00;54.93;96981.72;5094136;28;19964;-71
2022/06/18 05:02:40;;;;;;;;;;;;;;;18.13;54.56;96977.84;5092973;28;19962;-71
2022/06/18 05:05:10;;;;;;;;;;;;;;;18.27;53.74;96980.91;5093867;28;19972;-71
2022/06/18 05:07:37;;;;;;;;;;;;;;;18.41;53.17;96976.72;5093953;28;20431;-71
2022/06/18 05:10:03;;;;;;;;;;;;;;;18.56;52.66;96972.59;5092798;28;20000;-71
2022/06/18 05:12:29;;;;;;;;;;;;;;;18.73;52.32;96975.91;5093763;28;19976;-71
2022/06/18 05:14:55;;;;;;;;;;;;;;;18.86;52.43;96964.03;5093467;28;20070;-71
2022/06/18 05:17:23;;;;;;;;;;;;;;;18.94;51.55;96965.38;5093784;28;20356;-71
2022/06/18 05:19:49;;;;;;;;;;;;;;;18.97;51.52;96956.91;5093579;28;19962;-71
2022/06/18 05:22:15;;;;;;;;;;;;;;;19.06;51.71;96973.94;5093881;28;20045;-71
2022/06/18 05:24:41;;;;;;;;;;;;;;;19.06;52.19;96973.94;5093473;28;19947;-71
2022/06/18 05:27:16;;;;;;;;;;;;;;;19.14;52.56;96967.34;5093847;28;19966;-71
2022/06/18 05:29:42;;;;;;;;;;;;;;;19.33;52.46;96975.66;5084787;28;19951;-71
2022/06/18 05:32:09;;;;;;;;;;;;;;;19.48;51.52;96957.06;5093529;28;19961;-71
2022/06/18 05:34:35;;;;;;;;;;;;;;;19.59;51.52;96966.69;5093628;28;19948;-71
2022/06/18 05:37:01;;;;;;;;;;;;;;;19.79;52.27;96967.81;5091484;28;20045;-71
2022/06/18 05:39:26;;;;;;;;;;;;;;;20.00;51.62;96960.66;5093449;28;19957;-71
2022/06/18 05:41:52;;;;;;;;;;;;;;;20.19;51.08;96955.59;5093612;28;19998;-71
2022/06/18 05:44:18;;;;;;;;;;;;;;;20.33;50.78;96964.66;5093348;28;19958;-71
2022/06/18 05:46:44;;;;;;;;;;;;;;;20.53;50.50;96960.38;5093450;28;19988;-71
2022/06/18 05:49:10;;;;;;;;;;;;;;;20.70;50.07;96958.22;5093420;28;19962;-71
2022/06/18 05:51:36;;;;;;;;;;;;;;;20.95;50.10;96965.34;5093470;28;20392;-71
2022/06/18 05:54:02;;;;;;;;;;;;;;;21.07;49.32;96957.84;5093436;28;19956;-71
2022/06/18 05:56:28;;;;;;;;;;;;;;;21.20;49.01;96961.78;5093262;28;20360;-71
2022/06/18 05:58:54;;;;;;;;;;;;;;;21.37;49.07;96955.31;5093995;28;20371;-71
2022/06/18 06:01:19;;;;;;;;;;;;;;;21.48;47.51;96947.03;5093447;28;20344;-71
2022/06/18 06:03:45;;;;;;;;;;;;;;;21.48;48.07;96949.69;5093697;28;19991;-71
2022/06/18 06:06:11;;;;;;;;;;;;;;;21.50;48.47;96962.75;5093317;28;20496;-71
2022/06/18 06:08:37;;;;;;;;;;;;;;;21.60;47.93;96953.88;5093405;28;19966;-71
2022/06/18 06:13:48;;;;;;;;;;;;;;;21.81;48.53;96957.22;5079723;28;20449;-71
2022/06/18 06:16:15;;;;;;;;;;;;;;;22.04;47.95;96950.38;5093447;28;19966;-71
2022/06/18 06:18:40;;;;;;;;;;;;;;;22.32;47.57;96943.47;5093209;28;19967;-71
2022/06/18 06:21:06;;;;;;;;;;;;;;;22.52;46.90;96931.81;5093446;28;19965;-71
2022/06/18 06:23:32;;;;;;;;;;;;;;;22.66;47.25;96939.97;5093081;28;19964;-71
2022/06/18 06:25:58;;;;;;;;;;;;;;;22.71;46.71;96926.53;5093338;28;20008;-71
2022/06/18 06:28:26;;;;;;;;;;;;;;;22.81;46.65;96933.66;5093429;28;20046;-71
2022/06/18 06:30:53;;;;;;;;;;;;;;;22.99;46.96;96924.09;5096544;28;19953;-71
2022/06/18 06:33:19;;;;;;;;;;;;;;;23.22;45.10;96923.28;5096722;28;19952;-71
2022/06/18 06:35:46;;;;;;;;;;;;;;;23.49;45.35;96927.22;5096835;28;19956;-71
2022/06/18 06:38:32;;;;;;;;;;;;;;;23.79;44.65;96925.19;5096938;28;19956;-71
2022/06/18 06:40:58;;;;;;;;;;;;;;;23.96;42.53;96912.09;5096342;28;19962;-72
2022/06/18 06:43:24;;;;;;;;;;;;;;;24.17;43.48;96917.09;5096690;28;20025;-71
2022/06/18 06:45:50;;;;;;;;;;;;;;;24.28;42.19;96908.59;5096378;28;20083;-72
2022/06/18 06:48:17;;;;;;;;;;;;;;;24.33;41.16;96901.53;5097028;28;19960;-71
2022/06/18 06:50:44;;;;;;;;;;;;;;;24.40;40.80;96907.31;5096563;28;19963;-71
2022/06/18 06:53:10;;;;;;;;;;;;;;;24.49;42.28;96909.03;5096385;28;19958;-71
2022/06/18 06:58:21;;;;;;;;;;;;;;;24.71;40.42;96902.19;5096269;28;19953;-71
2022/06/18 07:00:49;;;;;;;;;;;;;;;24.67;40.88;96910.06;5096419;28;19995;-71
2022/06/18 07:03:17;;;;;;;;;;;;;;;24.77;40.63;96909.06;5096344;28;20320;-71
2022/06/18 07:05:44;;;;;;;;;;;;;;;24.90;40.78;96904.78;5096670;28;19974;-71
2022/06/18 07:08:11;;;;;;;;;;;;;;;25.04;41.21;96908.25;5096539;28;20402;-72
2022/06/18 07:10:50;;;;;;;;;;;;;;;25.23;40.56;96910.84;5077486;28;19959;-71
2022/06/18 07:13:17;;;;;;;;;;;;;;;25.36;40.24;96908.44;5095915;28;20099;-72
2022/06/18 07:15:43;;;;;;;;;;;;;;;25.49;40.75;96910.28;5096380;28;20445;-71
2022/06/18 07:18:17;;;;;;;;;;;;;;;25.50;39.67;96898.44;5095957;28;19950;-71
2022/06/18 07:20:43;;;;;;;;;;;;;;;25.55;40.67;96901.00;5095925;28;20017;-72
2022/06/18 07:23:09;;;;;;;;;;;;;;;25.65;39.97;96900.78;5096150;28;19977;-72
2022/06/18 07:25:35;;;;;;;;;;;;;;;25.67;40.03;96897.78;5096080;28;19986;-71
2022/06/18 07:28:01;;;;;;;;;;;;;;;25.58;40.70;96905.78;5095899;28;20002;-71
2022/06/18 07:30:27;;;;;;;;;;;;;;;25.54;41.13;96904.81;5094641;28;19963;-71
2022/06/18 07:32:53;;;;;;;;;;;;;;;25.71;41.50;96890.72;5095786;28;19950;-71
2022/06/18 07:35:25;;;;;;;;;;;;;;;25.78;39.67;96879.53;5095659;28;20010;-71
2022/06/18 07:37:53;;;;;;;;;;;;;;;25.80;40.13;96883.50;5095456;28;19954;-72
2022/06/18 07:40:20;;;;;;;;;;;;;;;25.70;39.75;96881.03;5096164;28;19981;-72
2022/06/18 07:42:47;;;;;;;;;;;;;;;25.59;40.89;96877.03;5095149;28;19966;-72
2022/06/18 07:45:16;;;;;;;;;;;;;;;25.70;40.76;96881.88;5095561;28;19998;-71
2022/06/18 07:47:42;;;;;;;;;;;;;;;25.82;40.53;96883.19;5095613;28;19949;-71
2022/06/18 07:50:08;;;;;;;;;;;;;;;26.08;40.32;96883.38;5095540;28;19962;-71
2022/06/18 07:52:34;;;;;;;;;;;;;;;26.25;39.68;96880.03;5095394;28;20013;-71
2022/06/18 07:55:00;;;;;;;;;;;;;;;26.40;39.24;96870.75;5095176;28;20324;-72
2022/06/18 07:57:26;;;;;;;;;;;;;;;26.49;38.76;96872.34;5095256;28;19958;-71
2022/06/18 07:59:52;;;;;;;;;;;;;;;26.59;38.70;96873.22;5094538;28;20008;-71
2022/06/18 08:02:20;;;;;;;;;;;;;;;26.70;39.33;96878.00;5094390;28;20325;-71
2022/06/18 08:04:45;;;;;;;;;;;;;;;26.85;39.16;96882.16;5095091;28;19957;-71
2022/06/18 08:07:11;;;;;;;;;;;;;;;27.02;39.20;96876.03;5095020;28;20027;-71
2022/06/18 08:09:38;;;;;;;;;;;;;;;27.10;37.68;96874.47;5094972;28;20052;-73
2022/06/18 08:12:04;;;;;;;;;;;;;;;27.24;37.97;96871.66;5095693;28;19957;-71
2022/06/18 08:14:30;;;;;;;;;;;;;;;27.36;38.13;96869.13;5094459;28;20348;-72
2022/06/18 08:16:56;;;;;;;;;;;;;;;27.52;37.18;96869.44;5094754;28;20010;-71
2022/06/18 08:19:21;;;;;;;;;;;;;;;27.53;37.55;96874.53;5094713;28;19960;-73
2022/06/18 08:22:05;;;;;;;;;;;;;;;27.58;37.08;96865.47;5076056;28;19965;-71
2022/06/18 08:24:31;;;;;;;;;;;;;;;27.70;37.43;96862.16;5094539;28;20502;-72
2022/06/18 08:26:57;;;;;;;;;;;;;;;27.84;37.23;96868.13;5094557;28;20018;-71
2022/06/18 08:29:24;;;;;;;;;;;;;;;28.01;36.50;96850.38;5094439;28;19958;-72
2022/06/18 08:31:50;;;;;;;;;;;;;;;28.01;35.76;96859.25;5095172;28;19955;-72
2022/06/18 08:34:16;;;;;;;;;;;;;;;28.06;36.37;96855.63;5094430;28;19954;-72
2022/06/18 08:36:42;;;;;;;;;;;;;;;28.16;35.96;96855.28;5094434;28;19957;-72
2022/06/18 08:39:08;;;;;;;;;;;;;;;28.25;35.52;96850.63;5094371;28;19958;-72
2022/06/18 08:41:44;;;;;;;;;;;;;;;28.26;35.49;96851.41;5094958;28;19977;-72
2022/06/18 08:44:16;;;;;;;;;;;;;;;28.31;36.10;96846.66;5094387;28;20068;-72
2022/06/18 08:47:00;;;;;;;;;;;;;;;28.37;34.71;96835.66;5094386;28;20330;-72
2022/06/18 08:49:29;;;;;;;;;;;;;;;28.50;35.13;96840.09;5094274;28;19960;-72
2022/06/18 08:52:13;;;;;;;;;;;;;;;28.60;33.84;96837.03;5094070;28;19966;-72
2022/06/18 08:55:11;;;;;;;;;;;;;;;28.79;34.14;96839.31;5092733;28;19954;-72
2022/06/18 08:57:56;;;;;;;;;;;;;;;28.97;34.63;96847.31;5094297;28;19968;-72
2022/06/18 09:00:29;;;;;;;;;;;;;;;29.10;35.49;96838.97;5093977;28;20408;-72
2022/06/18 09:03:21;;;;;;;;;;;;;;;29.18;33.58;96836.53;5088123;28;19961;-72
2022/06/18 09:06:13;;;;;;;;;;;;;;;29.26;32.82;96824.88;5082920;28;20456;-72
2022/06/18 09:08:49;;;;;;;;;;;;;;;29.40;32.19;96824.59;5094099;28;20327;-72
2022/06/18 09:11:15;;;;;;;;;;;;;;;29.34;30.78;96835.63;5094283;28;19962;-72
2022/06/18 09:13:43;;;;;;;;;;;;;;;29.23;31.89;96830.94;5094032;28;20336;-72
2022/06/18 09:16:12;;;;;;;;;;;;;;;29.28;31.50;96833.44;5093771;28;20326;-72
2022/06/18 09:19:17;;;;;;;;;;;;;;;29.42;32.63;96831.28;5093902;28;19962;-72
2022/06/18 09:21:53;;;;;;;;;;;;;;;29.58;31.87;96828.72;5093839;28;19958;-72
2022/06/18 09:24:27;;;;;;;;;;;;;;;29.73;29.35;96816.53;5093881;28;20298;-72
2022/06/18 09:26:57;;;;;;;;;;;;;;;29.81;31.91;96822.97;5093589;28;19970;-72
2022/06/18 09:29:38;;;;;;;;;;;;;;;29.91;29.78;96820.63;5093637;28;19955;-72
2022/06/18 09:32:13;;;;;;;;;;;;;;;30.03;27.81;96813.66;5093779;28;20407;-72
2022/06/18 09:34:56;;;;;;;;;;;;;;;30.06;26.94;96818.41;5093364;28;19956;-72
2022/06/18 09:37:26;;;;;;;;;;;;;;;29.93;28.52;96820.31;5094079;28;19959;-72
2022/06/18 09:39:55;;;;;;;;;;;;;;;29.98;29.24;96820.09;5093560;28;19953;-72
2022/06/18 09:42:42;;;;;;;;;;;;;;;30.15;28.57;96816.41;5093733;28;19956;-72
2022/06/18 09:45:14;;;;;;;;;;;;;;;30.24;27.00;96816.28;5081218;28;19969;-72
2022/06/18 09:47:47;;;;;;;;;;;;;;;30.22;28.92;96819.34;5093848;28;19981;-72
2022/06/18 09:50:16;;;;;;;;;;;;;;;30.24;29.64;96819.81;5093523;28;19957;-72
2022/06/18 09:52:45;;;;;;;;;;;;;;;30.30;30.47;96817.69;5093356;28;19951;-72
2022/06/18 09:55:17;;;;;;;;;;;;;;;30.46;29.54;96813.19;5093559;28;19963;-72
2022/06/18 09:57:45;;;;;;;;;;;;;;;30.48;27.70;96810.91;5093254;28;20339;-72
2022/06/18 10:00:28;;;;;;;;;;;;;;;30.52;28.05;96806.41;5093302;28;20049;-72
2022/06/18 10:02:57;;;;;;;;;;;;;;;30.67;29.11;96809.56;5091812;28;20347;-72
2022/06/18 10:08:11;;;;;;;;;;;;;;;30.81;27.12;96803.81;5097502;28;19959;-72
2022/06/18 10:10:40;;;;;;;;;;;;;;;30.83;27.56;96799.63;5096207;28;20335;-72
2022/06/18 10:13:11;;;;;;;;;;;;;;;30.66;24.02;96791.72;5097222;28;19961;-72
2022/06/18 10:15:37;;;;;;;;;;;;;;;30.61;27.02;96805.50;5097414;28;20348;-72
2022/06/18 10:18:19;;;;;;;;;;;;;;;30.67;26.85;96798.72;5097189;28;19964;-72
2022/06/18 10:20:52;;;;;;;;;;;;;;;30.91;26.17;96803.34;5097289;28;19956;-72
2022/06/18 10:23:18;;;;;;;;;;;;;;;31.06;27.01;96793.75;5081085;28;19960;-72
2022/06/18 10:25:48;;;;;;;;;;;;;;;31.27;26.87;96793.56;5096993;28;20364;-72
2022/06/18 10:28:25;;;;;;;;;;;;;;;31.44;25.00;96792.50;5096884;28;19955;-72
2022/06/18 10:31:07;;;;;;;;;;;;;;;31.44;25.25;96792.50;5096796;28;20029;-72
2022/06/18 10:33:48;;;;;;;;;;;;;;;31.42;25.73;96781.97;5097005;28;19958;-72
2022/06/18 10:36:22;;;;;;;;;;;;;;;31.51;26.04;96781.84;5096326;28;19961;-72
2022/06/18 10:38:48;;;;;;;;;;;;;;;31.64;26.69;96775.22;5096753;28;19951;-72
2022/06/18 10:41:26;;;;;;;;;;;;;;;31.85;26.53;96772.25;5096716;28;20478;-72
2022/06/18 10:43:58;;;;;;;;;;;;;;;32.03;24.35;96766.53;5096785;28;19960;-72
2022/06/18 10:46:24;;;;;;;;;;;;;;;32.01;25.16;96766.88;5086288;28;20348;-72
2022/06/18 10:48:56;;;;;;;;;;;;;;;31.97;23.51;96760.56;5096759;28;20009;-72
2022/06/18 10:51:24;;;;;;;;;;;;;;;31.99;26.22;96755.59;5096605;28;19952;-72
2022/06/18 10:53:57;;;;;;;;;;;;;;;32.08;24.92;96750.00;5096503;28;19965;-72
2022/06/18 10:56:24;;;;;;;;;;;;;;;32.12;25.06;96748.94;5096692;28;19960;-72
2022/06/18 10:58:51;;;;;;;;;;;;;;;32.23;24.97;96749.19;5096329;28;19961;-72
2022/06/18 11:01:22;;;;;;;;;;;;;;;32.35;26.56;96738.22;5094635;28;19955;-73
2022/06/18 11:03:58;;;;;;;;;;;;;;;32.55;25.27;96735.59;5096044;28;19961;-72
2022/06/18 11:06:24;;;;;;;;;;;;;;;32.73;22.58;96733.25;5096082;28;20354;-72
2022/06/18 11:08:55;;;;;;;;;;;;;;;32.88;23.87;96729.69;5094854;28;19968;-72
2022/06/18 11:11:23;;;;;;;;;;;;;;;32.93;24.26;96729.44;5096368;28;20435;-72
2022/06/18 11:13:50;;;;;;;;;;;;;;;33.11;25.22;96734.44;5096498;28;19984;-72
2022/06/18 11:16:17;;;;;;;;;;;;;;;33.31;24.16;96727.09;5094819;28;19972;-72
2022/06/18 11:18:54;;;;;;;;;;;;;;;33.52;24.42;96713.88;5096106;28;20069;-72
2022/06/18 11:21:39;;;;;;;;;;;;;;;33.72;24.27;96713.84;5095844;28;19957;-72
2022/06/18 11:24:10;;;;;;;;;;;;;;;33.84;23.45;96713.66;5095833;28;19949;-72
2022/06/18 11:26:49;;;;;;;;;;;;;;;33.76;23.84;96714.69;5095789;28;20034;-72
2022/06/18 11:29:38;;;;;;;;;;;;;;;33.78;23.51;96708.88;5095260;28;19951;-72
2022/06/18 11:32:12;;;;;;;;;;;;;;;33.82;22.79;96702.34;5089256;28;19956;-72
2022/06/18 11:34:41;;;;;;;;;;;;;;;33.92;23.35;96709.91;5095942;28;20326;-72
2022/06/18 11:37:13;;;;;;;;;;;;;;;34.02;23.25;96708.50;5095833;28;20024;-72
2022/06/18 11:39:40;;;;;;;;;;;;;;;34.05;22.89;96702.31;5095711;28;19958;-72
2022/06/18 11:42:11;;;;;;;;;;;;;;;34.09;23.50;96705.13;5095449;28;19962;-72
2022/06/18 11:44:41;;;;;;;;;;;;;;;34.08;23.84;96696.16;5095801;28;19958;-72
2022/06/18 11:47:16;;;;;;;;;;;;;;;33.92;22.43;96692.81;5095492;28;19980;-73
2022/06/18 11:49:49;;;;;;;;;;;;;;;33.85;23.78;96692.66;5095621;28;19958;-72
2022/06/18 11:52:34;;;;;;;;;;;;;;;33.84;22.81;96691.13;5095733;28;20416;-72
2022/06/18 11:55:09;;;;;;;;;;;;;;;34.00;25.66;96683.59;5095303;28;19960;-72
2022/06/18 11:57:38;;;;;;;;;;;;;;;34.21;24.03;96687.81;5095694;28;19950;-72
2022/06/18 12:00:13;;;;;;;;;;;;;;;34.29;23.63;96679.41;5095190;28;19964;-72
2022/06/18 12:02:55;;;;;;;;;;;;;;;34.34;23.26;96679.06;5094864;28;19964;-72
2022/06/18 12:05:32;;;;;;;;;;;;;;;34.45;24.17;96668.31;5080737;28;19956;-72
2022/06/18 12:07:59;;;;;;;;;;;;;;;34.50;23.10;96662.56;5095155;28;19971;-73
2022/06/18 12:10:31;;;;;;;;;;;;;;;34.57;23.61;96664.59;5095152;28;19952;-72
2022/06/18 12:13:06;;;;;;;;;;;;;;;34.72;23.62;96660.91;5094856;28;20417;-73
2022/06/18 12:15:35;;;;;;;;;;;;;;;34.84;22.77;96648.19;5094797;28;19965;-72
2022/06/18 12:18:10;;;;;;;;;;;;;;;34.85;23.00;96645.09;5093598;28;19967;-72
2022/06/18 12:20:48;;;;;;;;;;;;;;;34.94;23.18;96639.34;5095244;28;19952;-72
2022/06/18 12:23:34;;;;;;;;;;;;;;;35.01;23.51;96642.16;5094582;28;19955;-73
2022/06/18 12:26:15;;;;;;;;;;;;;;;35.02;21.58;96645.66;5073320;28;20088;-73
2022/06/18 12:28:53;;;;;;;;;;;;;;;34.86;22.23;96643.94;5094370;28;19968;-73
2022/06/18 12:31:25;;;;;;;;;;;;;;;34.73;22.34;96637.16;5094690;28;19953;-70
2022/06/18 12:33:56;;;;;;;;;;;;;;;34.81;24.49;96638.81;5094453;28;19958;-70
2022/06/18 12:36:34;;;;;;;;;;;;;;;34.96;24.92;96632.38;5094381;28;19966;-70
2022/06/18 12:39:00;;;;;;;;;;;;;;;35.06;23.80;96628.19;5094330;28;20415;-70
2022/06/18 12:41:39;;;;;;;;;;;;;;;35.16;23.72;96615.84;5094636;28;19955;-71
2022/06/18 12:44:08;;;;;;;;;;;;;;;35.27;24.05;96614.00;5079195;28;20325;-73
2022/06/18 12:46:43;;;;;;;;;;;;;;;35.20;23.13;96613.19;5094766;28;20448;-73
2022/06/18 12:49:15;;;;;;;;;;;;;;;35.12;24.32;96609.56;5084227;28;19956;-72
2022/06/18 12:51:51;;;;;;;;;;;;;;;35.23;24.06;96598.78;5094353;28;19966;-73
2022/06/18 12:54:26;;;;;;;;;;;;;;;35.27;23.41;96594.13;5094216;28;19972;-71
2022/06/18 12:57:04;;;;;;;;;;;;;;;35.30;23.39;96593.38;5094197;28;20299;-70
2022/06/18 13:00:03;;;;;;;;;;;;;;;35.40;23.31;96587.22;5077854;28;20330;-70
2022/06/18 13:02:39;;;;;;;;;;;;;;;35.37;23.75;96586.03;5085258;28;19957;-70
2022/06/18 13:05:24;;;;;;;;;;;;;;;35.41;24.32;96582.59;5094093;28;20294;-71
2022/06/18 13:07:52;;;;;;;;;;;;;;;35.44;24.26;96584.53;5093985;28;19974;-70
2022/06/18 13:10:25;;;;;;;;;;;;;;;35.52;24.08;96583.44;5094023;28;19960;-70
2022/06/18 13:12:57;;;;;;;;;;;;;;;35.44;23.48;96582.59;5093670;28;19948;-70
2022/06/18 13:15:38;;;;;;;;;;;;;;;35.14;24.12;96572.59;5093803;28;19985;-70